createdAt,value
2023-02-11T01:33:45.257Z,19.47
2023-02-11T01:34:45.823Z,19.47
2023-02-11T01:35:45.356Z,19.48
2023-02-11T01:36:45.449Z,19.47
2023-02-11T01:37:45.546Z,19.47
2023-02-11T01:38:45.637Z,19.47
2023-02-11T01:39:45.712Z,19.47
2023-02-11T01:40:45.798Z,19.46
2023-02-11T01:41:45.946Z,19.47
2023-02-11T01:42:45.969Z,19.47
2023-02-11T01:43:46.065Z,19.46
2023-02-11T01:44:46.145Z,19.47
2023-02-11T01:45:46.231Z,19.46
2023-02-11T01:46:46.409Z,19.46
2023-02-11T01:47:46.417Z,19.46
2023-02-11T01:48:46.680Z,19.46
2023-02-11T01:49:46.577Z,19.45
2023-02-11T01:50:46.664Z,19.46
2023-02-11T01:51:46.747Z,19.46
2023-02-11T01:52:46.837Z,19.45
2023-02-11T01:53:47.847Z,19.46
2023-02-11T01:54:47.007Z,19.46
2023-02-11T01:55:47.232Z,19.46
2023-02-11T01:56:47.175Z,19.45
2023-02-11T01:57:47.259Z,19.46
2023-02-11T01:58:47.347Z,19.46
2023-02-11T01:59:47.426Z,19.46
2023-02-11T02:00:47.509Z,19.46
2023-02-11T02:01:47.637Z,19.46
2023-02-11T02:02:47.710Z,19.46
2023-02-11T02:03:47.829Z,19.46
2023-02-11T02:04:47.870Z,19.45
2023-02-11T02:05:48.406Z,19.46
2023-02-11T02:06:48.043Z,19.45
2023-02-11T02:07:48.127Z,19.45
2023-02-11T02:08:48.222Z,19.45
2023-02-11T02:09:48.333Z,19.45
2023-02-11T02:10:48.486Z,19.45
2023-02-11T02:11:48.498Z,19.45
2023-02-11T02:12:48.568Z,19.45
2023-02-11T02:13:48.655Z,19.44
2023-02-11T02:14:48.737Z,19.45
2023-02-11T02:15:49.422Z,19.44
2023-02-11T02:16:48.913Z,19.44
2023-02-11T02:17:49.001Z,19.45
2023-02-11T02:18:49.104Z,19.44
2023-02-11T02:19:49.181Z,19.45
2023-02-11T02:20:49.269Z,19.44
2023-02-11T02:21:50.321Z,19.45
2023-02-11T02:22:49.470Z,19.44
2023-02-11T02:23:49.535Z,19.45
2023-02-11T02:24:49.627Z,19.45
2023-02-11T02:25:50.113Z,19.45
2023-02-11T02:26:49.817Z,19.44
2023-02-11T02:27:49.944Z,19.45
2023-02-11T02:28:49.986Z,19.45
2023-02-11T02:29:50.083Z,19.46
2023-02-11T02:30:50.223Z,19.45
2023-02-11T02:31:50.281Z,19.46
2023-02-11T02:32:50.361Z,19.45
2023-02-11T02:33:50.449Z,19.45
2023-02-11T02:34:50.534Z,19.45
2023-02-11T02:35:50.848Z,19.44
2023-02-11T02:36:50.686Z,19.44
2023-02-11T02:37:50.767Z,19.45
2023-02-11T02:38:50.897Z,19.44
2023-02-11T02:39:51.331Z,19.44
2023-02-11T02:40:51.043Z,19.45
2023-02-11T02:41:51.104Z,19.44
2023-02-11T02:42:51.195Z,19.45
2023-02-11T02:43:51.282Z,19.44
2023-02-11T02:44:51.373Z,19.44
2023-02-11T02:45:51.763Z,19.45
2023-02-11T02:46:51.574Z,19.44
2023-02-11T02:47:51.635Z,19.43
2023-02-11T02:48:51.703Z,19.43
2023-02-11T02:49:51.780Z,19.43
2023-02-11T02:50:51.888Z,19.44
2023-02-11T02:51:51.965Z,19.43
2023-02-11T02:52:52.055Z,19.43
2023-02-11T02:53:52.154Z,19.42
2023-02-11T02:54:52.234Z,19.43
2023-02-11T02:55:52.479Z,19.43
2023-02-11T02:56:52.428Z,19.42
2023-02-11T02:57:52.517Z,19.42
2023-02-11T02:58:53.316Z,19.42
2023-02-11T02:59:52.684Z,19.42
2023-02-11T03:00:52.822Z,19.42
2023-02-11T03:01:52.867Z,19.42
2023-02-11T03:02:52.945Z,19.43
2023-02-11T03:03:53.143Z,19.42
2023-02-11T03:04:53.124Z,19.43
2023-02-11T03:05:53.508Z,19.43
2023-02-11T03:06:53.291Z,19.43
2023-02-11T03:07:53.353Z,19.43
2023-02-11T03:08:53.419Z,19.43
2023-02-11T03:09:53.475Z,19.42
2023-02-11T03:10:53.532Z,19.44
2023-02-11T03:11:53.586Z,19.42
2023-02-11T03:12:53.659Z,19.42
2023-02-11T03:13:53.678Z,19.43
2023-02-11T03:14:53.747Z,19.42
2023-02-11T03:15:54.123Z,19.43
2023-02-11T03:16:53.885Z,19.42
2023-02-11T03:17:54.061Z,19.42
2023-02-11T03:18:54.059Z,19.42
2023-02-11T03:19:54.817Z,19.42
2023-02-11T03:20:54.198Z,19.42
2023-02-11T03:21:54.269Z,19.42
2023-02-11T03:22:54.345Z,19.42
2023-02-11T03:23:54.421Z,19.42
2023-02-11T03:24:54.485Z,19.42
2023-02-11T03:25:54.549Z,19.42
2023-02-11T03:26:54.632Z,19.42
2023-02-11T03:27:54.746Z,19.42
2023-02-11T03:28:54.729Z,19.42
2023-02-11T03:29:54.792Z,19.42
2023-02-11T03:30:54.865Z,19.41
2023-02-11T03:31:54.960Z,19.40
2023-02-11T03:32:54.937Z,19.41
2023-02-11T03:33:55.003Z,19.40
2023-02-11T03:34:55.068Z,19.40
2023-02-11T03:35:55.130Z,19.41
2023-02-11T03:36:55.212Z,19.40
2023-02-11T03:37:55.293Z,19.41
2023-02-11T03:38:55.343Z,19.42
2023-02-11T03:39:55.396Z,19.41
2023-02-11T03:40:55.462Z,19.41
2023-02-11T03:41:55.536Z,19.41
2023-02-11T03:42:55.636Z,19.40
2023-02-11T03:43:55.715Z,19.41
2023-02-11T03:44:55.773Z,19.41
2023-02-11T03:45:55.923Z,19.41
2023-02-11T03:46:55.942Z,19.41
2023-02-11T03:47:56.004Z,19.41
2023-02-11T03:48:56.039Z,19.40
2023-02-11T03:49:56.102Z,19.41
2023-02-11T03:50:56.167Z,19.41
2023-02-11T03:51:56.212Z,19.41
2023-02-11T03:52:56.274Z,19.41
2023-02-11T03:53:56.326Z,19.41
2023-02-11T03:54:56.382Z,19.41
2023-02-11T03:55:56.424Z,19.42
2023-02-11T03:56:56.459Z,19.41
2023-02-11T03:57:56.568Z,19.41
2023-02-11T03:58:56.575Z,19.41
2023-02-11T03:59:56.593Z,19.41
2023-02-11T04:00:57.409Z,19.41
2023-02-11T04:01:56.693Z,19.42
2023-02-11T04:02:56.824Z,19.41
2023-02-11T04:03:56.824Z,19.40
2023-02-11T04:04:56.861Z,19.40
2023-02-11T04:05:58.822Z,19.41
2023-02-11T04:06:56.970Z,19.40
2023-02-11T04:07:57.319Z,19.40
2023-02-11T04:08:57.081Z,19.40
2023-02-11T04:09:57.138Z,19.40
2023-02-11T04:10:57.205Z,19.40
2023-02-11T04:11:57.257Z,19.40
2023-02-11T04:12:57.328Z,19.40
2023-02-11T04:13:57.386Z,19.41
2023-02-11T04:14:57.461Z,19.40
2023-02-11T04:15:57.651Z,19.40
2023-02-11T04:16:57.633Z,19.40
2023-02-11T04:17:57.690Z,19.40
2023-02-11T04:18:57.759Z,19.40
2023-02-11T04:19:58.808Z,19.40
2023-02-11T04:20:57.910Z,19.40
2023-02-11T04:21:58.014Z,19.40
2023-02-11T04:22:58.095Z,19.39
2023-02-11T04:23:58.166Z,19.39
2023-02-11T04:24:58.244Z,19.39
2023-02-11T04:25:58.337Z,19.39
2023-02-11T04:26:58.446Z,19.38
2023-02-11T04:27:58.514Z,19.39
2023-02-11T04:28:58.587Z,19.39
2023-02-11T04:29:58.646Z,19.40
2023-02-11T04:30:58.780Z,19.40
2023-02-11T04:31:58.849Z,19.39
2023-02-11T04:32:59.813Z,19.39
2023-02-11T04:33:59.008Z,19.39
2023-02-11T04:34:59.076Z,19.40
2023-02-11T04:35:59.159Z,19.38
2023-02-11T04:36:59.250Z,19.39
2023-02-11T04:37:59.350Z,19.39
2023-02-11T04:38:59.449Z,19.39
2023-02-11T04:39:59.531Z,19.38
2023-02-11T04:40:59.603Z,19.39
2023-02-11T04:41:59.663Z,19.38
2023-02-11T04:42:59.716Z,19.39
2023-02-11T04:43:59.770Z,19.39
2023-02-11T04:44:59.849Z,19.38
2023-02-11T04:46:00.019Z,19.38
2023-02-11T04:46:59.985Z,19.39
2023-02-11T04:48:00.099Z,19.39
2023-02-11T04:49:00.161Z,19.38
2023-02-11T04:50:00.224Z,19.39
2023-02-11T04:51:00.290Z,19.39
2023-02-11T04:52:00.373Z,19.39
2023-02-11T04:53:00.430Z,19.39
2023-02-11T04:54:00.505Z,19.39
2023-02-11T04:55:00.541Z,19.40
2023-02-11T04:56:00.605Z,19.39
2023-02-11T04:57:00.667Z,19.39
2023-02-11T04:58:00.759Z,19.39
2023-02-11T04:59:00.857Z,19.39
2023-02-11T05:00:01.176Z,19.38
2023-02-11T05:01:01.002Z,19.38
2023-02-11T05:02:01.054Z,19.38
2023-02-11T05:03:01.109Z,19.39
2023-02-11T05:04:01.225Z,19.38
2023-02-11T05:05:01.244Z,19.38
2023-02-11T05:06:01.324Z,19.39
2023-02-11T05:07:01.397Z,19.38
2023-02-11T05:08:01.483Z,19.38
2023-02-11T05:09:01.557Z,19.38
2023-02-11T05:10:01.625Z,19.38
2023-02-11T05:11:01.658Z,19.37
2023-02-11T05:12:01.733Z,19.37
2023-02-11T05:13:01.788Z,19.37
2023-02-11T05:14:01.836Z,19.38
2023-02-11T05:15:01.882Z,19.37
2023-02-11T05:16:01.925Z,19.38
2023-02-11T05:17:02.052Z,19.38
2023-02-11T05:18:02.028Z,19.38
2023-02-11T05:19:02.077Z,19.38
2023-02-11T05:20:02.146Z,19.37
2023-02-11T05:21:02.178Z,19.37
2023-02-11T05:22:03.665Z,19.38
2023-02-11T05:23:02.286Z,19.38
2023-02-11T05:24:02.341Z,19.37
2023-02-11T05:25:02.463Z,19.38
2023-02-11T05:26:02.446Z,19.38
2023-02-11T05:27:02.510Z,19.37
2023-02-11T05:28:02.612Z,19.38
2023-02-11T05:29:02.616Z,19.37
2023-02-11T05:30:03.305Z,19.37
2023-02-11T05:31:02.792Z,19.37
2023-02-11T05:32:03.329Z,19.37
2023-02-11T05:33:02.852Z,19.38
2023-02-11T05:34:02.896Z,19.37
2023-02-11T05:35:02.959Z,19.37
2023-02-11T05:37:03.104Z,19.37
2023-02-11T05:38:03.063Z,19.37
2023-02-11T05:39:03.112Z,19.37
2023-02-11T05:40:03.168Z,19.37
2023-02-11T05:41:03.189Z,19.37
2023-02-11T05:42:03.218Z,19.36
2023-02-11T05:43:03.236Z,19.37
2023-02-11T05:44:03.266Z,19.36
2023-02-11T05:45:03.311Z,19.36
2023-02-11T05:46:03.418Z,19.36
2023-02-11T05:47:03.347Z,19.35
2023-02-11T05:48:03.374Z,19.36
2023-02-11T05:49:03.403Z,19.36
2023-02-11T05:50:03.439Z,19.36
2023-02-11T05:51:03.459Z,19.35
2023-02-11T05:52:03.482Z,19.34
2023-02-11T05:53:03.502Z,19.35
2023-02-11T05:54:03.533Z,19.36
2023-02-11T05:55:03.575Z,19.35
2023-02-11T05:56:03.597Z,19.35
2023-02-11T05:57:03.602Z,19.35
2023-02-11T05:58:03.618Z,19.35
2023-02-11T05:59:03.649Z,19.35
2023-02-11T06:00:03.679Z,19.35
2023-02-11T06:01:03.700Z,19.36
2023-02-11T06:02:03.737Z,19.36
2023-02-11T06:03:03.784Z,19.35
2023-02-11T06:04:03.885Z,19.36
2023-02-11T06:05:03.904Z,19.36
2023-02-11T06:06:03.934Z,19.36
2023-02-11T06:07:03.959Z,19.36
2023-02-11T06:08:03.995Z,19.36
2023-02-11T06:09:04.037Z,19.35
2023-02-11T06:10:04.172Z,19.36
2023-02-11T06:11:04.125Z,19.36
2023-02-11T06:12:04.140Z,19.35
2023-02-11T06:13:04.175Z,19.35
2023-02-11T06:14:04.203Z,19.36
2023-02-11T06:15:04.263Z,19.35
2023-02-11T06:16:04.342Z,19.35
2023-02-11T06:17:04.358Z,19.36
2023-02-11T06:18:04.340Z,19.35
2023-02-11T06:19:04.359Z,19.34
2023-02-11T06:20:04.399Z,19.34
2023-02-11T06:21:04.433Z,19.34
2023-02-11T06:22:04.473Z,19.34
2023-02-11T06:23:04.491Z,19.35
2023-02-11T06:40:05.174Z,19.35
2023-02-11T06:41:05.231Z,19.35
2023-02-11T06:42:07.684Z,19.36
2023-02-11T06:43:05.285Z,19.35
2023-02-11T06:44:05.305Z,19.35
2023-02-11T06:45:05.321Z,19.35
2023-02-11T06:46:05.353Z,19.35
2023-02-11T06:47:05.350Z,19.35
2023-02-11T06:48:05.377Z,19.35
2023-02-11T06:49:05.397Z,19.34
2023-02-11T06:50:05.410Z,19.34
2023-02-11T06:51:05.425Z,19.34
2023-02-11T06:52:05.446Z,19.33
2023-02-11T06:53:05.469Z,19.34
2023-02-11T06:54:05.491Z,19.33
2023-02-11T06:55:05.505Z,19.34
2023-02-11T06:56:05.522Z,19.34
2023-02-11T06:57:05.550Z,19.33
2023-02-11T06:58:05.635Z,19.33
2023-02-11T06:59:05.596Z,19.34
2023-02-11T07:00:05.972Z,19.33
2023-02-11T07:01:05.612Z,19.33
2023-02-11T07:02:05.681Z,19.33
2023-02-11T07:03:05.713Z,19.33
2023-02-11T07:04:05.664Z,19.34
2023-02-11T07:05:05.673Z,19.33
2023-02-11T07:06:05.695Z,19.33
2023-02-11T07:07:05.716Z,19.32
2023-02-11T07:08:05.725Z,19.33
2023-02-11T07:09:05.744Z,19.33
2023-02-11T07:10:05.765Z,19.33
2023-02-11T07:11:05.776Z,19.34
2023-02-11T07:12:05.783Z,19.34
2023-02-11T07:13:05.805Z,19.33
2023-02-11T07:14:05.822Z,19.33
2023-02-11T07:15:05.832Z,19.34
2023-02-11T07:16:05.889Z,19.33
2023-02-11T07:17:05.864Z,19.34
2023-02-11T07:18:05.878Z,19.34
2023-02-11T07:19:05.897Z,19.33
2023-02-11T07:20:05.916Z,19.33
2023-02-11T07:21:05.962Z,19.33
2023-02-11T07:22:05.958Z,19.34
2023-02-11T07:23:05.974Z,19.33
2023-02-11T07:24:07.305Z,19.33
2023-02-11T07:25:06.010Z,19.33
2023-02-11T07:26:06.045Z,19.32
2023-02-11T07:27:06.055Z,19.33
2023-02-11T07:28:06.194Z,19.32
2023-02-11T07:29:06.310Z,19.33
2023-02-11T07:30:07.408Z,19.32
2023-02-11T07:31:06.205Z,19.32
2023-02-11T07:32:06.180Z,19.32
2023-02-11T07:33:06.144Z,19.32
2023-02-11T07:34:06.167Z,19.32
2023-02-11T07:35:06.235Z,19.32
2023-02-11T07:36:06.199Z,19.31
2023-02-11T07:37:06.204Z,19.31
2023-02-11T07:38:06.225Z,19.32
2023-02-11T07:39:06.242Z,19.32
2023-02-11T07:40:06.263Z,19.31
2023-02-11T07:41:06.282Z,19.31
2023-02-11T07:42:06.299Z,19.31
2023-02-11T07:43:06.315Z,19.31
2023-02-11T07:44:06.348Z,19.31
2023-02-11T07:45:06.362Z,19.31
2023-02-11T07:46:06.381Z,19.31
2023-02-11T07:47:06.481Z,19.31
2023-02-11T07:48:06.405Z,19.31
2023-02-11T07:49:06.422Z,19.32
2023-02-11T07:50:06.454Z,19.32
2023-02-11T07:51:06.465Z,19.31
2023-02-11T07:52:06.546Z,19.31
2023-02-11T07:53:06.488Z,19.31
2023-02-11T07:54:06.508Z,19.31
2023-02-11T07:55:06.527Z,19.31
2023-02-11T07:56:06.535Z,19.31
2023-02-11T07:57:06.569Z,19.31
2023-02-11T07:58:06.586Z,19.31
2023-02-11T07:59:06.598Z,19.32
2023-02-11T08:00:06.621Z,19.31
2023-02-11T08:01:06.647Z,19.30
2023-02-11T08:02:06.746Z,19.30
2023-02-11T08:10:06.814Z,19.30
2023-02-11T08:11:06.822Z,19.30
2023-02-11T08:12:06.838Z,19.29
2023-02-11T08:13:06.851Z,19.29
2023-02-11T08:14:06.872Z,19.29
2023-02-11T08:15:06.972Z,19.29
2023-02-11T08:16:06.984Z,19.28
2023-02-11T08:17:06.926Z,19.28
2023-02-11T08:18:06.943Z,19.28
2023-02-11T08:19:06.972Z,19.29
2023-02-11T08:20:06.982Z,19.29
2023-02-11T08:21:07.012Z,19.28
2023-02-11T08:22:07.022Z,19.29
2023-02-11T08:23:07.036Z,19.28
2023-02-11T08:24:07.051Z,19.28
2023-02-11T08:25:07.068Z,19.28
2023-02-11T08:26:07.125Z,19.27
2023-02-11T08:27:07.098Z,19.27
2023-02-11T08:40:07.310Z,19.25
2023-02-11T08:58:07.651Z,19.25
2023-02-11T08:59:07.737Z,19.25
2023-02-11T09:00:07.663Z,19.25
2023-02-11T09:01:07.705Z,19.24
2023-02-11T09:02:07.708Z,19.24
2023-02-11T09:03:07.702Z,19.24
2023-02-11T09:04:07.727Z,19.24
2023-02-11T09:05:07.824Z,19.24
2023-02-11T09:06:07.765Z,19.24
2023-02-11T09:07:07.784Z,19.25
2023-02-11T09:08:07.799Z,19.24
2023-02-11T09:09:07.819Z,19.24
2023-02-11T09:10:07.839Z,19.24
2023-02-11T09:11:07.844Z,19.25
2023-02-11T09:12:08.776Z,19.24
2023-02-11T09:13:07.901Z,19.24
2023-02-11T09:14:08.016Z,19.24
2023-02-11T09:15:07.974Z,19.23
2023-02-11T09:16:07.954Z,19.25
2023-02-11T09:17:08.039Z,19.24
2023-02-11T09:18:07.988Z,19.24
2023-02-11T09:19:08.017Z,19.24
2023-02-11T09:20:10.452Z,19.24
2023-02-11T09:21:08.052Z,19.23
2023-02-11T09:22:08.063Z,19.23
2023-02-11T09:23:08.096Z,19.23
2023-02-11T09:24:08.103Z,19.23
2023-02-11T09:25:08.123Z,19.24
2023-02-11T09:26:09.376Z,19.23
2023-02-11T09:27:08.150Z,19.24
2023-02-11T09:28:08.228Z,19.24
2023-02-11T09:29:08.184Z,19.24
2023-02-11T09:30:08.196Z,19.24
2023-02-11T09:31:08.318Z,19.23
2023-02-11T09:32:09.913Z,19.23
2023-02-11T09:33:08.247Z,19.23
2023-02-11T09:34:08.276Z,19.23
2023-02-11T09:35:08.291Z,19.23
2023-02-11T09:36:08.321Z,19.23
2023-02-11T09:37:08.309Z,19.23
2023-02-11T09:38:08.325Z,19.23
2023-02-11T09:39:08.337Z,19.22
2023-02-11T09:40:08.347Z,19.23
2023-02-11T09:41:08.370Z,19.22
2023-02-11T09:42:08.384Z,19.23
2023-02-11T09:43:08.396Z,19.23
2023-02-11T09:44:08.418Z,19.22
2023-02-11T09:45:08.432Z,19.23
2023-02-11T09:46:08.495Z,19.23
2023-02-11T09:47:08.456Z,19.23
2023-02-11T09:48:08.471Z,19.23
2023-02-11T09:49:08.492Z,19.23
2023-02-11T09:50:08.508Z,19.23
2023-02-11T09:51:08.540Z,19.22
2023-02-11T09:52:08.551Z,19.23
2023-02-11T09:53:08.551Z,19.23
2023-02-11T09:54:08.575Z,19.23
2023-02-11T09:55:08.589Z,19.22
2023-02-11T09:56:08.613Z,19.23
2023-02-11T09:57:16.880Z,19.22
2023-02-11T09:58:09.651Z,19.22
2023-02-11T09:59:08.674Z,19.22
2023-02-11T10:00:08.688Z,19.22
2023-02-11T10:01:08.851Z,19.22
2023-02-11T10:02:08.745Z,19.22
2023-02-11T10:03:08.742Z,19.22
2023-02-11T10:04:08.777Z,19.22
2023-02-11T10:05:08.792Z,19.23
2023-02-11T10:06:08.794Z,19.23
2023-02-11T10:07:08.812Z,19.21
2023-02-11T10:08:08.831Z,19.22
2023-02-11T10:09:08.848Z,19.22
2023-02-11T10:10:08.868Z,19.22
2023-02-11T10:11:08.879Z,19.23
2023-02-11T10:12:08.898Z,19.22
2023-02-11T10:13:08.913Z,19.22
2023-02-11T10:14:08.929Z,19.22
2023-02-11T10:15:08.945Z,19.21
2023-02-11T10:16:09.049Z,19.22
2023-02-11T10:17:08.977Z,19.22
2023-02-11T10:18:09.046Z,19.22
2023-02-11T10:19:09.006Z,19.22
2023-02-11T10:20:09.017Z,19.22
2023-02-11T10:21:09.022Z,19.22
2023-02-11T10:22:09.040Z,19.21
2023-02-11T10:23:09.053Z,19.22
2023-02-11T10:24:09.060Z,19.22
2023-02-11T10:25:09.076Z,19.21
2023-02-11T10:26:09.082Z,19.21
2023-02-11T10:27:09.112Z,19.21
2023-02-11T10:28:09.138Z,19.22
2023-02-11T10:29:09.134Z,19.21
2023-02-11T10:30:09.143Z,19.21
2023-02-11T10:31:09.295Z,19.20
2023-02-11T10:32:09.364Z,19.21
2023-02-11T10:33:09.205Z,19.20
2023-02-11T10:34:09.270Z,19.21
2023-02-11T10:35:09.275Z,19.21
2023-02-11T10:36:09.305Z,19.20
2023-02-11T10:37:09.329Z,19.21
2023-02-11T10:38:09.364Z,19.21
2023-02-11T10:39:09.385Z,19.21
2023-02-11T10:40:09.413Z,19.21
2023-02-11T10:41:09.453Z,19.21
2023-02-11T10:42:09.478Z,19.20
2023-02-11T10:43:09.510Z,19.21
2023-02-11T10:44:09.529Z,19.20
2023-02-11T10:45:09.558Z,19.21
2023-02-11T10:46:09.607Z,19.21
2023-02-11T10:47:09.630Z,19.21
2023-02-11T10:48:09.656Z,19.21
2023-02-11T10:49:09.695Z,19.20
2023-02-11T10:50:09.715Z,19.21
2023-02-11T10:51:09.746Z,19.20
2023-02-11T10:52:10.275Z,19.20
2023-02-11T12:46:13.030Z,19.27
2023-02-11T12:47:12.977Z,19.27
2023-02-11T12:48:12.993Z,19.26
2023-02-11T12:49:13.016Z,19.26
2023-02-11T12:50:13.072Z,19.25
2023-02-11T12:51:13.052Z,19.25
2023-02-11T12:52:13.067Z,19.26
2023-02-11T12:53:13.102Z,19.26
2023-02-11T12:54:13.131Z,19.25
2023-02-11T12:55:13.163Z,19.25
2023-02-11T12:56:13.241Z,19.26
2023-02-11T12:57:13.197Z,19.26
2023-02-11T12:58:13.213Z,19.25
2023-02-11T12:59:14.440Z,19.25
2023-02-11T13:00:13.243Z,19.26
2023-02-11T13:02:14.289Z,19.25
2023-02-11T13:03:13.305Z,19.26
2023-02-11T13:04:13.338Z,19.25
2023-02-11T13:05:14.433Z,19.25
2023-02-11T13:06:13.431Z,19.25
2023-02-11T13:07:13.410Z,19.26
2023-02-11T13:08:13.427Z,19.26
2023-02-11T13:09:13.470Z,19.26
2023-02-11T13:10:13.483Z,19.25
2023-02-11T13:11:14.535Z,19.25
2023-02-11T13:12:13.532Z,19.25
2023-02-11T13:13:13.554Z,19.25
2023-02-11T13:14:13.593Z,19.24
2023-02-11T13:15:13.615Z,19.25
2023-02-11T13:16:13.717Z,19.24
2023-02-11T13:17:13.669Z,19.25
2023-02-11T13:18:13.720Z,19.25
2023-02-11T13:19:13.738Z,19.24
2023-02-11T13:20:13.769Z,19.24
2023-02-11T13:21:13.773Z,19.23
2023-02-11T13:22:14.777Z,19.23
2023-02-11T13:23:13.818Z,19.23
2023-02-11T13:24:13.841Z,19.23
2023-02-11T13:25:14.261Z,19.23
2023-02-11T13:26:13.958Z,19.23
2023-02-11T13:27:13.911Z,19.23
2023-02-11T13:28:14.064Z,19.23
2023-02-11T13:29:13.981Z,19.24
2023-02-11T13:30:14.009Z,19.23
2023-02-11T13:31:14.137Z,19.22
2023-02-11T13:32:14.145Z,19.22
2023-02-11T13:33:14.094Z,19.22
2023-02-11T13:34:14.113Z,19.22
2023-02-11T13:35:14.149Z,19.22
2023-02-11T13:36:14.172Z,19.21
2023-02-11T13:37:14.190Z,19.21
2023-02-11T13:38:14.223Z,19.22
2023-02-11T13:39:14.250Z,19.21
2023-02-11T13:40:14.272Z,19.22
2023-02-11T13:41:14.356Z,19.22
2023-02-11T13:42:14.315Z,19.21
2023-02-11T13:43:14.337Z,19.21
2023-02-11T13:44:14.366Z,19.21
2023-02-11T13:45:14.395Z,19.21
2023-02-11T13:46:14.507Z,19.21
2023-02-11T13:47:14.525Z,19.21
2023-02-11T13:48:14.450Z,19.21
2023-02-11T13:49:14.472Z,19.20
2023-02-11T13:50:14.508Z,19.20
2023-02-11T13:51:14.527Z,19.21
2023-02-11T13:52:14.626Z,19.20
2023-02-11T13:53:16.085Z,19.20
2023-02-11T13:54:14.626Z,19.19
2023-02-11T13:55:14.652Z,19.20
2023-02-11T13:56:14.681Z,19.20
2023-02-11T13:57:14.712Z,19.19
2023-02-11T13:58:14.751Z,19.20
2023-02-11T13:59:14.765Z,19.19
2023-02-11T14:00:14.800Z,19.20
2023-02-11T14:01:14.863Z,19.19
2023-02-11T14:02:14.889Z,19.19
2023-02-11T14:03:14.896Z,19.19
2023-02-11T14:04:14.929Z,19.19
2023-02-11T14:05:14.958Z,19.19
2023-02-11T14:06:14.991Z,19.19
2023-02-11T14:07:15.746Z,19.19
2023-02-11T14:08:15.059Z,19.18
2023-02-11T14:09:15.086Z,19.19
2023-02-11T14:10:15.187Z,19.18
2023-02-11T14:11:15.156Z,19.18
2023-02-11T14:12:15.270Z,19.18
2023-02-11T14:13:15.229Z,19.18
2023-02-11T14:14:15.270Z,19.18
2023-02-11T14:15:15.299Z,19.18
2023-02-11T14:16:20.300Z,19.18
2023-02-11T14:17:16.354Z,19.17
2023-02-11T14:18:15.359Z,19.18
2023-02-11T14:19:15.388Z,19.18
2023-02-11T14:20:15.405Z,19.17
2023-02-11T14:21:15.411Z,19.17
2023-02-11T14:22:15.428Z,19.17
2023-02-11T14:23:15.454Z,19.17
2023-02-11T14:24:15.487Z,19.17
2023-02-11T14:25:15.489Z,19.17
2023-02-11T14:26:16.808Z,19.17
2023-02-11T14:27:15.525Z,19.17
2023-02-11T14:28:15.567Z,19.16
2023-02-11T14:29:15.551Z,19.16
2023-02-11T14:30:15.574Z,19.17
2023-02-11T14:31:15.672Z,19.17
2023-02-11T14:32:15.632Z,19.16
2023-02-11T14:33:15.629Z,19.16
2023-02-11T14:34:15.722Z,19.16
2023-02-11T14:35:15.685Z,19.16
2023-02-11T14:36:15.690Z,19.16
2023-02-11T14:37:15.718Z,19.17
2023-02-11T14:38:15.721Z,19.16
2023-02-11T14:39:15.748Z,19.17
2023-02-11T14:40:15.775Z,19.16
2023-02-11T14:41:15.784Z,19.16
2023-02-11T14:42:16.798Z,19.17
2023-02-11T14:43:15.851Z,19.16
2023-02-11T14:44:15.850Z,19.17
2023-02-11T14:45:15.872Z,19.16
2023-02-11T14:46:15.946Z,19.16
2023-02-11T14:47:15.940Z,19.17
2023-02-11T14:48:15.978Z,19.16
2023-02-11T14:49:16.020Z,19.16
2023-02-11T14:50:16.057Z,19.16
2023-02-11T14:51:16.139Z,19.16
2023-02-11T14:52:16.127Z,19.16
2023-02-11T14:53:16.160Z,19.16
2023-02-11T14:54:16.192Z,19.16
2023-02-11T14:55:17.803Z,19.16
2023-02-11T14:56:16.263Z,19.15
2023-02-11T14:57:16.308Z,19.15
2023-02-11T14:58:16.325Z,19.15
2023-02-11T14:59:16.354Z,19.15
2023-02-11T15:00:16.516Z,19.16
2023-02-11T15:01:16.488Z,19.16
2023-02-11T15:02:16.478Z,19.16
2023-02-11T15:03:16.514Z,19.15
2023-02-11T15:04:16.519Z,19.15
2023-02-11T15:05:16.545Z,19.14
2023-02-11T15:06:16.574Z,19.15
2023-02-11T15:07:16.617Z,19.15
2023-02-11T15:08:16.662Z,19.15
2023-02-11T15:09:16.673Z,19.14
2023-02-11T15:10:16.691Z,19.14
2023-02-11T15:11:16.735Z,19.14
2023-02-11T15:12:16.754Z,19.13
2023-02-11T15:13:16.787Z,19.14
2023-02-11T15:14:16.827Z,19.14
2023-02-11T15:15:16.858Z,19.13
2023-02-11T15:16:16.912Z,19.15
2023-02-11T15:17:16.981Z,19.14
2023-02-11T15:18:17.740Z,19.14
2023-02-11T15:19:17.014Z,19.14
2023-02-11T15:20:17.042Z,19.14
2023-02-11T15:21:17.085Z,19.14
2023-02-11T15:22:17.126Z,19.14
2023-02-11T15:23:17.164Z,19.13
2023-02-11T15:24:17.207Z,19.13
2023-02-11T15:25:17.262Z,19.13
2023-02-11T15:26:17.285Z,19.12
2023-02-11T15:27:17.313Z,19.12
2023-02-11T15:28:18.272Z,19.13
2023-02-11T15:29:17.403Z,19.12
2023-02-11T15:30:17.439Z,19.13
2023-02-11T15:31:17.559Z,19.12
2023-02-11T15:32:17.594Z,19.12
2023-02-11T15:33:17.531Z,19.13
2023-02-11T15:34:17.573Z,19.12
2023-02-11T15:35:17.620Z,19.12
2023-02-11T15:36:17.652Z,19.12
2023-02-11T15:37:17.696Z,19.13
2023-02-11T15:38:17.737Z,19.13
2023-02-11T15:39:17.855Z,19.12
2023-02-11T15:40:17.825Z,19.12
2023-02-11T15:41:17.858Z,19.11
2023-02-11T15:42:17.910Z,19.12
2023-02-11T15:43:17.933Z,19.11
2023-02-11T15:44:17.967Z,19.12
2023-02-11T15:45:18.009Z,19.10
2023-02-11T15:46:18.113Z,19.11
2023-02-11T15:47:18.090Z,19.12
2023-02-11T15:48:18.145Z,19.12
2023-02-11T15:49:18.177Z,19.11
2023-02-11T15:50:18.205Z,19.11
2023-02-11T15:51:18.250Z,19.11
2023-02-11T15:52:18.293Z,19.11
2023-02-11T15:53:18.344Z,19.11
2023-02-11T15:54:18.378Z,19.11
2023-02-11T15:55:18.420Z,19.10
2023-02-11T15:56:19.252Z,19.10
2023-02-11T15:57:18.576Z,19.10
2023-02-11T15:58:18.595Z,19.10
2023-02-11T15:59:18.587Z,19.10
2023-02-11T16:00:18.621Z,19.10
2023-02-11T16:01:18.704Z,19.10
2023-02-11T16:02:18.684Z,19.10
2023-02-11T16:03:18.739Z,19.10
2023-02-11T16:04:18.790Z,19.10
2023-02-11T16:05:18.789Z,19.09
2023-02-11T16:06:19.240Z,19.09
2023-02-11T16:07:18.874Z,19.10
2023-02-11T16:08:18.902Z,19.09
2023-02-11T16:09:19.016Z,19.09
2023-02-11T16:10:18.998Z,19.09
2023-02-11T16:11:19.033Z,19.09
2023-02-11T16:12:19.076Z,19.09
2023-02-11T16:13:19.106Z,19.09
2023-02-11T16:14:19.146Z,19.09
2023-02-11T16:15:19.260Z,19.08
2023-02-11T16:16:19.288Z,19.09
2023-02-11T16:17:19.269Z,19.08
2023-02-11T16:18:19.316Z,19.08
2023-02-11T16:19:19.372Z,19.09
2023-02-11T16:20:19.406Z,19.09
2023-02-11T16:21:19.447Z,19.08
2023-02-11T16:22:19.488Z,19.08
2023-02-11T16:23:19.556Z,19.09
2023-02-11T16:24:19.574Z,19.08
2023-02-11T16:25:19.608Z,19.08
2023-02-11T16:26:19.657Z,19.08
2023-02-11T16:27:19.698Z,19.08
2023-02-11T16:28:19.776Z,19.08
2023-02-11T16:29:19.796Z,19.08
2023-02-11T16:30:19.829Z,19.07
2023-02-11T16:31:20.019Z,19.07
2023-02-11T16:32:19.912Z,19.07
2023-02-11T16:33:19.960Z,19.07
2023-02-11T16:34:19.999Z,19.07
2023-02-11T16:35:20.058Z,19.07
2023-02-11T16:36:20.103Z,19.07
2023-02-11T16:37:20.133Z,19.07
2023-02-11T16:38:20.183Z,19.07
2023-02-11T16:39:20.218Z,19.08
2023-02-11T16:40:20.345Z,19.08
2023-02-11T16:41:20.305Z,19.07
2023-02-11T16:42:20.357Z,19.08
2023-02-11T16:43:20.412Z,19.06
2023-02-11T16:44:20.437Z,19.07
2023-02-11T16:45:20.502Z,19.07
2023-02-11T16:46:20.553Z,19.07
2023-02-11T16:47:20.576Z,19.07
2023-02-11T16:48:20.632Z,19.06
2023-02-11T16:49:20.656Z,19.07
2023-02-11T16:50:20.696Z,19.06
2023-02-11T16:51:20.786Z,19.07
2023-02-11T16:52:20.795Z,19.06
2023-02-11T16:53:20.830Z,19.06
2023-02-11T16:54:20.882Z,19.06
2023-02-11T16:55:22.284Z,19.06
2023-02-11T16:56:20.961Z,19.06
2023-02-11T16:57:21.008Z,19.05
2023-02-11T16:58:21.051Z,19.05
2023-02-11T16:59:21.085Z,19.05
2023-02-11T17:00:21.127Z,19.05
2023-02-11T17:01:21.232Z,19.04
2023-02-11T17:02:23.625Z,19.05
2023-02-11T17:03:21.241Z,19.05
2023-02-11T17:04:21.307Z,19.05
2023-02-11T17:05:21.274Z,19.05
2023-02-11T17:06:21.297Z,19.05
2023-02-11T17:07:21.326Z,19.04
2023-02-11T17:08:21.335Z,19.04
2023-02-11T17:09:21.386Z,19.04
2023-02-11T17:10:21.382Z,19.04
2023-02-11T17:11:21.426Z,19.04
2023-02-11T17:12:21.419Z,19.04
2023-02-11T17:13:21.440Z,19.04